createdAt,value
2023-02-08T00:02:21.450Z,-10677.47
2023-02-08T00:05:27.556Z,-10687.38
2023-02-08T00:08:34.353Z,-10690.16
2023-02-08T00:11:42.472Z,-10670.66
2023-02-08T00:14:48.670Z,-10671.91
2023-02-08T00:17:55.063Z,-10666.88
2023-02-08T00:21:01.753Z,-10685.44
2023-02-08T00:24:08.549Z,-10701.47
2023-02-08T00:27:16.405Z,-10703.56
2023-02-08T00:30:22.925Z,-10705.78
2023-02-08T00:33:29.377Z,-10711.22
2023-02-08T00:36:35.970Z,-10679.44
2023-02-08T00:39:42.030Z,-10688.06
2023-02-08T00:42:50.038Z,-10680.53
2023-02-08T00:45:56.798Z,-10675.53
2023-02-08T00:49:04.035Z,-10677.47
2023-02-08T00:52:10.342Z,-10692.81
2023-02-08T00:55:17.087Z,-10699.50
2023-02-08T00:58:25.296Z,-10691.16
2023-02-08T01:01:31.374Z,-10697.56
2023-02-08T01:04:38.000Z,-10703.13
2023-02-08T01:07:43.920Z,-10702.56
2023-02-08T01:10:50.196Z,-10701.47
2023-02-08T01:13:58.637Z,-10696.03
2023-02-08T01:17:05.033Z,-10690.59
2023-02-08T01:20:12.793Z,-10703.56
2023-02-08T01:23:19.103Z,-10684.44
2023-02-08T01:26:26.755Z,-10693.09
2023-02-08T01:29:34.705Z,-10685.28
2023-02-08T01:32:41.134Z,-10700.06
2023-02-08T01:35:50.982Z,-10697.84
2023-02-08T01:38:57.498Z,-10698.66
2023-02-08T01:42:03.679Z,-10684.03
2023-02-08T01:45:30.261Z,-10662.16
2023-02-08T01:48:40.092Z,-10672.31
2023-02-08T01:51:51.381Z,-10682.50
2023-02-08T01:55:01.544Z,-10675.25
2023-02-08T01:58:12.439Z,-10686.53
2023-02-08T02:01:20.040Z,-10663.53
2023-02-08T02:04:28.503Z,-10653.22
2023-02-08T02:07:35.039Z,-10670.78
2023-02-08T02:10:43.560Z,-10681.53
2023-02-08T02:13:51.187Z,-10675.38
2023-02-08T02:17:00.962Z,-10671.06
2023-02-08T02:20:15.854Z,-10684.03
2023-02-08T02:23:58.398Z,-10660.34
2023-02-08T02:27:33.043Z,-10678.88
2023-02-08T02:31:21.806Z,-10685.97
2023-02-08T02:34:39.710Z,-10681.53
2023-02-08T02:37:56.303Z,-10678.88
2023-02-08T02:41:11.601Z,-10671.75
2023-02-08T02:44:25.080Z,-10689.47
2023-02-08T02:47:38.783Z,-10686.53
2023-02-08T02:50:49.706Z,-10688.63
2023-02-08T02:54:02.288Z,-10670.50
2023-02-08T02:57:12.506Z,-10664.94
2023-02-08T03:00:24.724Z,-10658.25
2023-02-08T03:03:34.444Z,-10665.34
2023-02-08T03:06:56.479Z,-10674.28
2023-02-08T03:10:14.700Z,-10654.91
2023-02-08T03:13:32.671Z,-10673.03
2023-02-08T03:16:56.920Z,-10646.81
2023-02-08T03:20:08.768Z,-10660.34
2023-02-08T03:23:23.900Z,-10668.84
2023-02-08T03:26:37.540Z,-10668.00
2023-02-08T03:29:51.246Z,-10657.41
2023-02-08T03:33:02.803Z,-10642.50
2023-02-08T03:36:16.109Z,-10631.78
2023-02-08T03:39:27.935Z,-10633.59
2023-02-08T03:42:36.575Z,-10641.25
2023-02-08T03:45:47.687Z,-10652.69
2023-02-08T03:49:00.179Z,-10656.00
2023-02-08T03:52:09.898Z,-10651.84
2023-02-08T03:55:21.614Z,-10667.03
2023-02-08T03:58:33.751Z,-10676.50
2023-02-08T04:01:45.604Z,-10674.69
2023-02-08T04:04:53.829Z,-10680.25
2023-02-08T04:08:00.128Z,-10668.28
2023-02-08T04:11:07.718Z,-10673.28
2023-02-08T04:14:14.215Z,-10667.31
2023-02-08T04:17:20.194Z,-10663.69
2023-02-08T04:20:26.363Z,-10657.69
2023-02-08T04:23:32.787Z,-10662.97
2023-02-08T04:26:40.450Z,-10635.69
2023-02-08T04:29:46.875Z,-10629.69
2023-02-08T04:32:53.424Z,-10628.44
2023-02-08T04:35:59.836Z,-10652.69
2023-02-08T04:39:06.218Z,-10671.22
2023-02-08T04:42:14.092Z,-10669.25
2023-02-08T04:45:20.323Z,-10647.94
2023-02-08T04:48:26.670Z,-10661.88
2023-02-08T04:51:32.868Z,-10664.22
2023-02-08T04:54:40.879Z,-10645.72
2023-02-08T04:57:48.536Z,-10649.34
2023-02-08T05:00:55.321Z,-10637.91
2023-02-08T05:04:01.570Z,-10641.25
2023-02-08T05:07:07.915Z,-10627.47
2023-02-08T05:10:14.255Z,-10640.28
2023-02-08T05:13:22.189Z,-10649.59
2023-02-08T05:16:28.650Z,-10641.66
2023-02-08T05:19:34.789Z,-10646.28
2023-02-08T05:22:41.799Z,-10646.69
2023-02-08T05:25:47.809Z,-10625.78
2023-02-08T05:28:55.457Z,-10647.81
2023-02-08T05:32:01.726Z,-10647.94
2023-02-08T05:35:08.684Z,-10654.63
2023-02-08T05:38:14.778Z,-10656.28
2023-02-08T05:41:21.229Z,-10672.59
2023-02-08T05:44:29.168Z,-10655.31
2023-02-08T05:47:35.782Z,-10674.41
2023-02-08T05:50:42.575Z,-10662.84
2023-02-08T05:53:49.350Z,-10657.13
2023-02-08T05:56:55.555Z,-10671.75
2023-02-08T06:00:03.855Z,-10666.47
2023-02-08T06:03:10.169Z,-10677.75
2023-02-08T06:06:16.503Z,-10674.97
2023-02-08T06:09:23.250Z,-10685.44
2023-02-08T06:12:29.456Z,-10679.00
2023-02-08T06:15:37.322Z,-10688.06
2023-02-08T06:18:43.713Z,-10680.00
2023-02-08T06:21:50.037Z,-10692.25
2023-02-08T06:24:56.399Z,-10656.72
2023-02-08T06:28:03.267Z,-10675.81
2023-02-08T06:31:11.251Z,-10664.66
2023-02-08T06:34:17.158Z,-10676.94
2023-02-08T06:37:23.113Z,-10668.00
2023-02-08T06:40:29.543Z,-10687.66
2023-02-08T06:43:35.680Z,-10697.84
2023-02-08T06:46:43.169Z,-10691.44
2023-02-08T06:49:49.497Z,-10667.59
2023-02-08T06:52:55.817Z,-10687.53
2023-02-08T06:56:02.086Z,-10675.94
2023-02-08T06:59:08.367Z,-10690.72
2023-02-08T07:02:18.861Z,-10672.31
2023-02-08T07:05:25.356Z,-10689.75
2023-02-08T07:08:31.980Z,-10698.66
2023-02-08T07:11:38.281Z,-10697.56
2023-02-08T07:14:45.152Z,-10693.66
2023-02-08T07:17:52.816Z,-10720.44
2023-02-08T07:20:59.404Z,-10710.53
2023-02-08T07:24:05.444Z,-10740.38
2023-02-08T07:27:14.392Z,-10742.47
2023-02-08T07:30:20.762Z,-10734.66
2023-02-08T07:33:28.473Z,-10756.44
2023-02-08T07:36:35.843Z,-10743.88
2023-02-08T07:39:42.213Z,-10747.38
2023-02-08T07:42:48.621Z,-10756.44
2023-02-08T07:45:55.201Z,-10773.91
2023-02-08T07:49:03.240Z,-10770.97
2023-02-08T07:52:09.531Z,-10772.50
2023-02-08T07:55:17.298Z,-10783.81
2023-02-08T07:58:23.345Z,-10790.78
2023-02-08T08:01:29.797Z,-10792.19
2023-02-08T08:04:37.524Z,-10811.91
2023-02-08T08:07:43.768Z,-10809.38
2023-02-08T08:10:50.389Z,-10802.38
2023-02-08T08:13:56.760Z,-10792.75
2023-02-08T08:17:03.108Z,-10810.91
2023-02-08T08:20:12.718Z,-10822.09
2023-02-08T08:23:19.753Z,-10816.38
2023-02-08T08:26:25.998Z,-10832.16
2023-02-08T08:29:33.592Z,-10830.47
2023-02-08T08:32:39.821Z,-10832.72
2023-02-08T08:35:47.512Z,-10850.47
2023-02-08T08:38:54.121Z,-10856.22
2023-02-08T08:42:01.703Z,-10847.81
2023-02-08T08:45:09.465Z,-10852.03
2023-02-08T08:48:15.786Z,-10846.72
2023-02-08T08:51:23.426Z,-10858.19
2023-02-08T08:54:29.523Z,-10874.53
2023-02-08T08:57:35.536Z,-10868.81
2023-02-08T09:00:42.022Z,-10871.88
2023-02-08T09:03:48.516Z,-10889.09
2023-02-08T09:06:56.012Z,-10886.03
2023-02-08T09:10:02.209Z,-10888.25
2023-02-08T09:13:08.567Z,-10890.06
2023-02-08T09:16:17.490Z,-10902.53
2023-02-08T09:19:23.481Z,-10897.50
2023-02-08T09:22:31.466Z,-10897.63
2023-02-08T09:25:38.296Z,-10886.44
2023-02-08T09:28:44.261Z,-10900.16
2023-02-08T09:31:50.840Z,-10904.34
2023-02-08T09:34:57.908Z,-10909.41
2023-02-08T09:38:05.929Z,-10914.00
2023-02-08T09:41:29.653Z,-10920.88
2023-02-08T09:44:46.880Z,-10904.63
2023-02-08T09:48:01.555Z,-10910.22
2023-02-08T09:51:17.326Z,-10924.78
2023-02-08T09:54:31.427Z,-10925.63
2023-02-08T09:57:38.575Z,-10925.22
2023-02-08T10:00:50.824Z,-10915.56
2023-02-08T10:04:00.797Z,-10935.56
2023-02-08T10:07:07.286Z,-10958.13
2023-02-08T10:10:21.728Z,-10936.28
2023-02-08T10:13:55.792Z,-10966.25
2023-02-08T10:17:11.275Z,-10954.22
2023-02-08T10:20:38.418Z,-10965.84
2023-02-08T10:24:15.757Z,-10952.81
2023-02-08T10:27:29.720Z,-10972.16
2023-02-08T10:30:46.579Z,-10962.63
2023-02-08T10:34:00.689Z,-10950.56
2023-02-08T10:37:18.941Z,-10971.72
2023-02-08T10:40:32.773Z,-10959.25
2023-02-08T10:43:44.848Z,-10981.53
2023-02-08T10:46:57.770Z,-10974.53
2023-02-08T10:50:15.028Z,-10945.81
2023-02-08T10:53:21.587Z,-11007.63
2023-02-08T10:56:58.044Z,-10956.72
2023-02-08T11:00:12.786Z,-10999.63
2023-02-08T11:03:25.123Z,-10980.69
2023-02-08T11:06:36.430Z,-10949.72
2023-02-08T11:09:42.964Z,-10986.72
2023-02-08T11:12:57.098Z,-10959.81
2023-02-08T11:16:06.830Z,-10967.25
2023-02-08T11:19:22.993Z,-10981.69
2023-02-08T11:22:32.556Z,-10958.13
2023-02-08T11:25:43.934Z,-10965.69
2023-02-08T11:29:02.074Z,-10953.09
2023-02-08T11:32:19.297Z,-10953.09
2023-02-08T11:35:39.880Z,-10968.50
2023-02-08T11:38:49.594Z,-10953.66
2023-02-08T11:42:00.781Z,-10952.81
2023-02-08T11:45:10.064Z,-10948.88
2023-02-08T11:48:24.552Z,-10951.97
2023-02-08T11:51:35.640Z,-10987.16
2023-02-08T11:54:43.253Z,-10948.31
2023-02-08T11:57:54.997Z,-10982.50
2023-02-08T12:01:03.938Z,-10951.81
2023-02-08T12:04:13.874Z,-10950.72
2023-02-08T12:07:24.285Z,-10937.69
2023-02-08T12:10:56.268Z,-10943.56
2023-02-08T12:14:27.961Z,-10942.16
2023-02-08T12:18:07.661Z,-10941.88
2023-02-08T12:21:20.509Z,-10963.75
2023-02-08T12:24:34.198Z,-10971.16
2023-02-08T12:27:47.381Z,-10974.53
2023-02-08T12:31:04.513Z,-10965.16
2023-02-08T12:34:18.817Z,-10987.56
2023-02-08T12:37:55.091Z,-11007.47
2023-02-08T12:41:14.745Z,-11018.69
2023-02-08T12:44:34.266Z,-10998.91
2023-02-08T12:48:03.735Z,-10976.50
2023-02-08T12:51:23.147Z,-11006.63
2023-02-08T12:54:36.517Z,-10995.97
2023-02-08T12:57:46.227Z,-11015.59
2023-02-08T13:00:55.872Z,-11043.66
2023-02-08T13:04:06.172Z,-10978.31
2023-02-08T13:07:17.454Z,-11015.59
2023-02-08T13:10:30.718Z,-10999.63
2023-02-08T13:13:40.740Z,-10973.97
2023-02-08T13:16:51.805Z,-10969.63
2023-02-08T13:20:02.620Z,-10964.59
2023-02-08T13:23:19.449Z,-11004.09
2023-02-08T13:26:31.724Z,-10965.56
2023-02-08T13:29:39.224Z,-11005.50
2023-02-08T13:32:48.209Z,-10960.25
2023-02-08T13:35:55.755Z,-10956.31
2023-02-08T13:39:04.563Z,-10957.72
2023-02-08T13:42:22.791Z,-10960.09
2023-02-08T13:45:31.037Z,-10980.56
2023-02-08T13:48:47.456Z,-11016.72
2023-02-08T13:51:54.930Z,-11017.28
2023-02-08T13:55:36.046Z,-11015.75
2023-02-08T13:59:24.915Z,-11023.03
2023-02-08T14:02:31.738Z,-11031.03
2023-02-08T14:05:53.349Z,-11028.78
2023-02-08T14:09:08.335Z,-11017.16
2023-02-08T14:12:22.880Z,-11003.53
2023-02-08T14:15:33.535Z,-10989.09
2023-02-08T14:18:40.779Z,-10971.88
2023-02-08T14:21:49.676Z,-10950.72
2023-02-08T14:25:04.936Z,-10953.66
2023-02-08T14:28:27.297Z,-10938.66
2023-02-08T14:31:41.401Z,-10949.72
2023-02-08T14:34:48.052Z,-10941.88
2023-02-08T14:38:36.364Z,-10941.59
2023-02-08T14:42:00.296Z,-10939.09
2023-02-08T14:45:07.601Z,-10934.75
2023-02-08T14:48:25.068Z,-10937.53
2023-02-08T14:51:35.753Z,-10928.03
2023-02-08T14:54:49.961Z,-10930.13
2023-02-08T14:57:58.725Z,-10926.47
2023-02-08T15:01:14.537Z,-10919.63
2023-02-08T15:04:22.872Z,-10922.84
2023-02-08T15:07:36.730Z,-10918.22
2023-02-08T15:10:46.057Z,-10917.09
2023-02-08T15:13:54.235Z,-10909.94
2023-02-08T15:17:00.731Z,-10911.91
2023-02-08T15:20:22.001Z,-10904.91
2023-02-08T15:23:28.301Z,-10909.13
2023-02-08T15:26:35.115Z,-10900.00
2023-02-08T15:29:45.676Z,-10906.88
2023-02-08T15:32:52.100Z,-10900.28
2023-02-08T15:36:02.808Z,-10902.94
2023-02-08T15:39:16.517Z,-10901.97
2023-02-08T15:42:25.446Z,-10896.50
2023-02-08T15:45:31.812Z,-10897.91
2023-02-08T15:48:41.617Z,-10891.06
2023-02-08T15:51:51.131Z,-10891.63
2023-02-08T15:54:57.737Z,-10891.47
2023-02-08T15:58:08.590Z,-10889.78
2023-02-08T16:01:19.369Z,-10885.75
2023-02-08T16:04:27.130Z,-10883.09
2023-02-08T16:07:38.971Z,-10883.34
2023-02-08T16:10:49.033Z,-10884.47
2023-02-08T16:13:58.293Z,-10878.88
2023-02-08T16:17:04.613Z,-10879.72
2023-02-08T16:20:30.775Z,-10876.78
2023-02-08T16:23:40.713Z,-10873.84
2023-02-08T16:26:50.759Z,-10876.50
2023-02-08T16:29:57.834Z,-10875.66
2023-02-08T16:33:09.284Z,-10867.69
2023-02-08T16:36:24.037Z,-10867.13
2023-02-08T16:39:53.383Z,-10864.34
2023-02-08T16:43:17.783Z,-10864.47
2023-02-08T16:46:27.806Z,-10857.47
2023-02-08T16:49:33.999Z,-10857.91
2023-02-08T16:52:40.546Z,-10854.13
2023-02-08T16:55:48.359Z,-10853.97
2023-02-08T16:58:54.780Z,-10847.00
2023-02-08T17:02:01.100Z,-10845.31
2023-02-08T17:05:07.589Z,-10841.38
2023-02-08T17:08:17.392Z,-10847.41
2023-02-08T17:11:25.652Z,-10836.50
2023-02-08T17:14:31.982Z,-10833.00
2023-02-08T17:17:38.300Z,-10831.88
2023-02-08T17:20:45.376Z,-10830.75
2023-02-08T17:23:51.681Z,-10834.13
2023-02-08T17:26:59.262Z,-10832.44
2023-02-08T17:30:06.361Z,-10826.00
2023-02-08T17:33:18.313Z,-10823.22
2023-02-08T17:36:25.066Z,-10824.34
2023-02-08T17:39:31.667Z,-10816.38
2023-02-08T17:42:40.329Z,-10813.84
2023-02-08T17:45:47.077Z,-10810.06
2023-02-08T17:48:54.063Z,-10816.66
2023-02-08T17:52:00.409Z,-10812.72
2023-02-08T17:55:07.844Z,-10809.78
2023-02-08T17:58:15.797Z,-10809.94
2023-02-08T18:01:24.478Z,-10809.25
2023-02-08T18:04:30.827Z,-10809.38
2023-02-08T18:07:37.283Z,-10816.22
2023-02-08T18:10:43.798Z,-10811.75
2023-02-08T18:13:53.286Z,-10808.41
2023-02-08T18:16:59.974Z,-10812.72
2023-02-08T18:20:07.773Z,-10807.56
2023-02-08T18:23:14.426Z,-10807.00
2023-02-08T18:26:23.467Z,-10809.50
2023-02-08T18:29:31.398Z,-10807.56
2023-02-08T18:32:37.846Z,-10801.41
2023-02-08T18:35:49.698Z,-10804.22
2023-02-08T18:38:57.138Z,-10799.47
2023-02-08T18:42:03.503Z,-10798.06
2023-02-08T18:45:11.780Z,-10797.50
2023-02-08T18:48:18.113Z,-10783.25
2023-02-08T18:51:27.188Z,-10797.50
2023-02-08T18:54:33.266Z,-10795.53
2023-02-08T18:57:40.172Z,-10788.69
2023-02-08T19:00:47.806Z,-10779.63
2023-02-08T19:03:55.080Z,-10778.06
2023-02-08T19:07:02.310Z,-10780.19
2023-02-08T19:10:09.635Z,-10795.69
2023-02-08T19:13:16.866Z,-10791.06
2023-02-08T19:16:25.334Z,-10789.13
2023-02-08T19:19:32.119Z,-10788.28
2023-02-08T19:22:38.338Z,-10789.41
2023-02-08T19:25:45.382Z,-10782.69
2023-02-08T19:28:52.208Z,-10788.56
2023-02-08T19:32:00.362Z,-10787.44
2023-02-08T19:35:07.202Z,-10786.31
2023-02-08T19:38:13.877Z,-10791.63
2023-02-08T19:41:22.520Z,-10789.69
2023-02-08T19:44:30.761Z,-10785.47
2023-02-08T19:47:50.696Z,-10786.03
2023-02-08T19:50:59.559Z,-10782.13
2023-02-08T19:54:10.181Z,-10769.72
2023-02-08T19:57:16.975Z,-10778.63
2023-02-08T20:00:24.370Z,-10768.44
2023-02-08T20:03:32.303Z,-10776.53
2023-02-08T20:06:39.745Z,-10760.91
2023-02-08T20:09:46.142Z,-10757.84
2023-02-08T20:12:52.729Z,-10772.09
2023-02-08T20:16:00.886Z,-10775.00
2023-02-08T20:19:11.353Z,-10774.03
2023-02-08T20:22:17.750Z,-10772.63
2023-02-08T20:25:24.965Z,-10774.88
2023-02-08T20:28:31.536Z,-10766.50
2023-02-08T20:31:41.129Z,-10771.66
2023-02-08T20:34:59.057Z,-10765.37
2023-02-08T20:38:06.522Z,-10765.09
2023-02-08T20:41:15.396Z,-10765.50
2023-02-08T20:44:21.684Z,-10769.44
2023-02-08T20:47:29.991Z,-10741.38
2023-02-08T20:50:39.583Z,-10749.31
2023-02-08T20:53:47.583Z,-10736.34
2023-02-08T20:56:55.000Z,-10751.41
2023-02-08T21:00:01.226Z,-10756.16
2023-02-08T21:03:07.667Z,-10748.06
2023-02-08T21:06:17.392Z,-10731.19
2023-02-08T21:09:24.145Z,-10748.91
2023-02-08T21:12:31.624Z,-10751.69
2023-02-08T21:15:43.112Z,-10733.53
2023-02-08T21:18:49.440Z,-10737.72
2023-02-08T21:21:58.249Z,-10746.09
2023-02-08T21:25:04.616Z,-10747.50
2023-02-08T21:28:10.956Z,-10758.13
2023-02-08T21:31:19.921Z,-10751.41
2023-02-08T21:34:26.423Z,-10751.41
2023-02-08T21:37:36.010Z,-10756.59
2023-02-08T21:40:42.861Z,-10749.75
2023-02-08T21:43:50.392Z,-10733.53
2023-02-08T21:46:56.406Z,-10723.50
2023-02-08T21:50:20.074Z,-10725.47
2023-02-08T21:53:44.464Z,-10736.19
2023-02-08T21:56:50.542Z,-10741.66
2023-02-08T21:59:59.558Z,-10743.88
2023-02-08T22:03:05.846Z,-10730.91
2023-02-08T22:06:11.897Z,-10710.38
2023-02-08T22:09:20.714Z,-10703.00
2023-02-08T22:12:27.116Z,-10707.03
2023-02-08T22:15:35.158Z,-10703.13
2023-02-08T22:18:41.704Z,-10700.06
2023-02-08T22:21:47.890Z,-10705.09
2023-02-08T22:24:55.566Z,-10701.19
2023-02-08T22:28:01.859Z,-10717.78
2023-02-08T22:31:08.249Z,-10721.81
2023-02-08T22:34:14.291Z,-10725.19
2023-02-08T22:37:20.308Z,-10734.66
2023-02-08T22:40:28.261Z,-10730.19
2023-02-08T22:43:34.352Z,-10733.53
2023-02-08T22:46:40.389Z,-10719.03
2023-02-08T22:49:46.449Z,-10727.81
2023-02-08T22:52:52.241Z,-10732.84
2023-02-08T22:55:59.866Z,-10721.81
2023-02-08T22:59:05.892Z,-10692.81
2023-02-08T23:02:12.113Z,-10690.72
2023-02-08T23:05:18.528Z,-10678.31
2023-02-08T23:08:24.946Z,-10685.56
2023-02-08T23:11:32.611Z,-10689.19
2023-02-08T23:14:39.185Z,-10700.91
2023-02-08T23:17:45.501Z,-10691.28
2023-02-08T23:20:52.096Z,-10712.34
2023-02-08T23:23:58.453Z,-10714.56
2023-02-08T23:27:05.737Z,-10705.78
2023-02-08T23:30:13.503Z,-10716.81
2023-02-08T23:33:19.590Z,-10703.13
2023-02-08T23:36:25.779Z,-10709.00
2023-02-08T23:39:34.821Z,-10697.56
2023-02-08T23:42:42.413Z,-10702.03
2023-02-08T23:45:48.963Z,-10712.19
2023-02-08T23:48:55.570Z,-10699.09
2023-02-08T23:52:01.554Z,-10709.00
2023-02-08T23:55:08.634Z,-10715.97
2023-02-08T23:58:16.072Z,-10716.66
